Yarnaby, Oklahoma
Current Conditions -  °F | °C
As of 1:15 PM on Friday 28 Nov 2014 (Local Time) from KDUA Reporting Station
Clear Clear  
Wind Chill: 66°   Ceiling: Unl
Heat Index: 66°   Visibility: 10mi
Dew Point: 48°   Wind: 22mph
Humidity: 52%   Direction: 190°S
Pressure: 30.07"   Gusts: 26mph
Location:  33.7954°N, 96.3174°W
Report Text: KDUA 281915Z AUTO 19019G23KT 10SM CLR 19/09 A3007 RMK AO2
Loading
Personal Weather Stations






























Interactive Weather Map New forecast layout! Learn more

10-Day Weather Forecast

Advertisements
Track Severe Weather on mobile